Terminal Aerodrome Forecast
Issued by NWS Flagstaff, AZ

Home | Current Version | Previous Version | Text Only | Print | Product List | Glossary On
Versions: 1 2 3 4 5 6 7 8 9 10 11 12 13 14 15
537
FTUS45 KFGZ 270520
TAFFLG
TAF
KFLG 270520Z 2706/2806 VRB06KT P6SM SCT100
     FM271600 VRB06KT P6SM SCT080 PROB30 2718/2724 -TSRA BKN070CB=

USA.gov is the U.S. government's official web portal to all federal, state and local government web resources and services.